Time;durP1;ratioP1;P1;durP2;ratioP2;P2;SDS_P1;SDS_P2;PMS_P1;PMS_P2;Temp;Humidity;BMP_temperature;BMP_pressure;BME280_temperature;BME280_humidity;BME280_pressure;Samples;Min_cycle;Max_cycle;Signal;HPM_P1;HPM_P2
2023/04/22 00:00:50;;;;;;;0.50;0.50;;;18.40;60.30;;;;;;4999842;28;20054;-83
2023/04/22 00:03:16;;;;;;;0.75;0.60;;;18.40;60.30;;;;;;4971980;28;20116;-82
2023/04/22 00:05:43;;;;;;;0.43;0.43;;;18.40;60.30;;;;;;4952958;28;20050;-82
2023/04/22 00:08:09;;;;;;;0.50;0.40;;;18.40;60.30;;;;;;4952047;28;20066;-83
2023/04/22 00:10:34;;;;;;;0.70;0.70;;;18.30;60.30;;;;;;4940244;28;20045;-82
2023/04/22 00:13:00;;;;;;;0.50;0.50;;;18.40;60.30;;;;;;4949589;28;20043;-82
2023/04/22 00:15:25;;;;;;;0.63;0.63;;;18.40;60.40;;;;;;4986592;28;20621;-82
2023/04/22 00:17:51;;;;;;;1.10;0.50;;;18.40;60.40;;;;;;4974442;28;20046;-82
2023/04/22 00:20:20;;;;;;;0.60;0.60;;;18.40;60.40;;;;;;4967403;28;20050;-81
2023/04/22 00:22:45;;;;;;;0.50;0.50;;;18.40;60.50;;;;;;4973995;28;20095;-83
2023/04/22 00:25:11;;;;;;;0.40;0.40;;;18.30;60.50;;;;;;4978845;28;20129;-83
2023/04/22 00:27:37;;;;;;;0.40;0.40;;;18.30;60.50;;;;;;4971936;28;20042;-83
2023/04/22 00:30:03;;;;;;;0.40;0.40;;;18.40;60.60;;;;;;4987859;28;20045;-83
2023/04/22 00:32:28;;;;;;;0.50;0.50;;;18.30;60.50;;;;;;4986383;28;20054;-83
2023/04/22 00:34:56;;;;;;;0.50;0.50;;;18.30;60.60;;;;;;4992675;28;20051;-83
2023/04/22 00:37:22;;;;;;;1.58;0.60;;;18.30;60.60;;;;;;4980301;28;20034;-84
2023/04/22 00:39:47;;;;;;;0.50;0.50;;;18.30;60.70;;;;;;4998754;28;20050;-83
2023/04/22 00:42:13;;;;;;;0.50;0.50;;;18.30;61.50;;;;;;4938101;28;20062;-83
2023/04/22 00:44:39;;;;;;;0.40;0.40;;;18.30;60.80;;;;;;4964957;28;20579;-83
2023/04/22 00:47:05;;;;;;;0.50;0.50;;;18.30;60.80;;;;;;4987550;28;20054;-83
2023/04/22 00:49:30;;;;;;;2.33;0.70;;;18.30;60.80;;;;;;4968455;28;20034;-83
2023/04/22 00:51:56;;;;;;;0.50;0.50;;;18.30;61.60;;;;;;4956985;28;20076;-83
2023/04/22 00:54:22;;;;;;;0.80;0.80;;;18.30;60.80;;;;;;4948183;28;20037;-83
2023/04/22 00:56:47;;;;;;;0.43;0.43;;;18.40;60.90;;;;;;4967866;28;20192;-83
2023/04/22 00:59:13;;;;;;;0.40;0.40;;;18.30;60.80;;;;;;4955769;28;20030;-83
2023/04/22 01:01:38;;;;;;;0.50;0.50;;;18.30;60.90;;;;;;4972761;28;20100;-84
2023/04/22 01:04:04;;;;;;;0.40;0.40;;;18.40;61.10;;;;;;5003202;28;20050;-83
2023/04/22 01:06:32;;;;;;;0.40;0.40;;;18.30;61.00;;;;;;5005574;28;20045;-82
2023/04/22 01:08:58;;;;;;;0.50;0.50;;;18.30;60.90;;;;;;5006246;28;20057;-84
2023/04/22 01:11:24;;;;;;;0.60;0.60;;;18.30;61.00;;;;;;4984911;28;20042;-84
2023/04/22 01:13:50;;;;;;;0.40;0.40;;;18.30;61.90;;;;;;5003882;28;20162;-84
2023/04/22 01:16:15;;;;;;;0.40;0.40;;;18.30;61.20;;;;;;5004598;28;20038;-85
2023/04/22 01:18:41;;;;;;;1.17;0.52;;;18.30;61.10;;;;;;4972809;28;20423;-85
2023/04/22 01:21:06;;;;;;;0.40;0.40;;;18.30;62.00;;;;;;4987313;28;20288;-85
2023/04/22 01:23:32;;;;;;;0.52;0.52;;;18.30;61.20;;;;;;4983457;28;20042;-84
2023/04/22 01:25:58;;;;;;;0.40;0.40;;;18.30;61.10;;;;;;4980358;28;20042;-85
2023/04/22 01:28:24;;;;;;;0.73;0.60;;;18.30;61.20;;;;;;4979095;28;20034;-85
2023/04/22 01:30:50;;;;;;;0.40;0.40;;;18.30;61.10;;;;;;4958783;28;20034;-85
2023/04/22 01:33:16;;;;;;;0.38;0.38;;;18.30;61.20;;;;;;4984292;28;20049;-84
2023/04/22 01:35:41;;;;;;;0.43;0.43;;;18.30;61.20;;;;;;4985884;28;20046;-85
2023/04/22 01:38:08;;;;;;;0.45;0.45;;;18.30;61.20;;;;;;4986386;28;20403;-84
2023/04/22 01:40:34;;;;;;;0.88;0.60;;;18.30;61.20;;;;;;4997623;28;20412;-85
2023/04/22 01:42:59;;;;;;;0.57;0.57;;;18.30;61.20;;;;;;4981510;28;20042;-84
2023/04/22 01:45:28;;;;;;;0.52;0.52;;;18.30;61.20;;;;;;4982053;28;20031;-84
2023/04/22 01:47:54;;;;;;;0.50;0.50;;;18.30;62.00;;;;;;4949892;28;20051;-84
2023/04/22 01:50:20;;;;;;;0.50;0.50;;;18.30;61.30;;;;;;4979600;28;20039;-84
2023/04/22 01:52:45;;;;;;;0.50;0.50;;;18.30;61.30;;;;;;4995404;28;20046;-84
2023/04/22 01:55:11;;;;;;;0.68;0.60;;;18.30;61.30;;;;;;4982228;28;20034;-84
2023/04/22 01:57:36;;;;;;;0.40;0.40;;;18.30;61.30;;;;;;4981372;28;20094;-84
2023/04/22 02:00:04;;;;;;;0.50;0.50;;;18.20;61.30;;;;;;4968320;28;20049;-84
2023/04/22 02:02:30;;;;;;;0.40;0.40;;;18.30;61.30;;;;;;4982483;28;20050;-84
2023/04/22 02:04:55;;;;;;;0.60;0.60;;;18.20;61.20;;;;;;4999232;28;20043;-83
2023/04/22 02:07:21;;;;;;;0.40;0.40;;;18.20;61.10;;;;;;4983940;28;20046;-84
2023/04/22 02:09:46;;;;;;;0.40;0.40;;;18.20;61.20;;;;;;4968916;28;20684;-84
2023/04/22 02:12:12;;;;;;;0.63;0.45;;;18.20;61.30;;;;;;4957886;28;20026;-84
2023/04/22 02:14:37;;;;;;;0.68;0.50;;;18.20;61.20;;;;;;4933657;28;20057;-84
2023/04/22 02:17:03;;;;;;;0.30;0.30;;;18.20;61.20;;;;;;4967724;28;20691;-84
2023/04/22 02:19:29;;;;;;;0.57;0.57;;;18.20;61.30;;;;;;4991507;28;20103;-83
2023/04/22 02:21:54;;;;;;;0.63;0.63;;;18.30;61.30;;;;;;4958193;28;20045;-83
2023/04/22 02:24:20;;;;;;;0.88;0.40;;;18.20;61.30;;;;;;4981836;28;20039;-83
2023/04/22 02:26:46;;;;;;;0.40;0.40;;;18.20;61.20;;;;;;4951860;28;20042;-84
2023/04/22 02:29:12;;;;;;;0.40;0.40;;;18.20;61.20;;;;;;4980852;28;20519;-84
2023/04/22 02:31:37;;;;;;;0.40;0.40;;;18.20;61.20;;;;;;4980713;28;20065;-84
2023/04/22 02:34:03;;;;;;;0.50;0.50;;;18.20;61.30;;;;;;4980006;28;20038;-83
2023/04/22 02:36:28;;;;;;;0.45;0.45;;;18.30;61.30;;;;;;4981618;28;20046;-83
2023/04/22 02:38:54;;;;;;;0.50;0.50;;;18.20;61.30;;;;;;4952191;28;20058;-84
2023/04/22 02:41:20;;;;;;;0.38;0.38;;;18.20;61.30;;;;;;4996952;28;20053;-83
2023/04/22 02:43:45;;;;;;;0.40;0.40;;;18.20;61.20;;;;;;4978016;28;20042;-83
2023/04/22 02:46:12;;;;;;;0.40;0.40;;;18.30;61.20;;;;;;4983128;28;20104;-84
2023/04/22 02:48:38;;;;;;;0.50;0.50;;;18.30;61.00;;;;;;4981893;28;20887;-85
2023/04/22 02:51:05;;;;;;;0.70;0.70;;;18.20;61.00;;;;;;5009770;28;20070;-84
2023/04/22 02:53:30;;;;;;;0.47;0.47;;;18.20;61.10;;;;;;4982184;28;20042;-84
2023/04/22 02:55:57;;;;;;;0.43;0.43;;;18.20;61.30;;;;;;4978793;28;20128;-84
2023/04/22 02:58:23;;;;;;;0.40;0.40;;;18.20;60.90;;;;;;4978522;28;20439;-83
2023/04/22 03:00:48;;;;;;;0.40;0.40;;;18.20;61.10;;;;;;4981111;28;20057;-85
2023/04/22 03:03:14;;;;;;;0.55;0.55;;;18.20;61.20;;;;;;5000058;28;20046;-85
2023/04/22 03:05:39;;;;;;;0.50;0.50;;;18.20;61.30;;;;;;4983764;28;20070;-84
2023/04/22 03:08:05;;;;;;;0.40;0.40;;;18.20;61.30;;;;;;5000505;28;20124;-85
2023/04/22 03:10:31;;;;;;;0.40;0.40;;;18.20;61.30;;;;;;4996755;28;20042;-84
2023/04/22 03:12:56;;;;;;;0.40;0.40;;;18.20;61.30;;;;;;4985270;28;20448;-83
2023/04/22 03:15:22;;;;;;;0.50;0.50;;;18.20;61.30;;;;;;4979306;28;20043;-83
2023/04/22 03:17:48;;;;;;;0.55;0.55;;;18.20;61.20;;;;;;4993649;28;20070;-83
2023/04/22 03:20:14;;;;;;;0.40;0.40;;;18.20;61.30;;;;;;4997192;28;20065;-84
2023/04/22 03:22:40;;;;;;;0.45;0.45;;;18.20;61.20;;;;;;4980715;28;20420;-83
2023/04/22 03:25:05;;;;;;;0.40;0.40;;;18.20;61.50;;;;;;4996196;28;20041;-83
2023/04/22 03:27:31;;;;;;;0.60;0.60;;;18.20;61.40;;;;;;4992313;28;20061;-83
2023/04/22 03:29:57;;;;;;;0.40;0.40;;;18.20;61.30;;;;;;4985189;28;20052;-83
2023/04/22 03:32:22;;;;;;;0.50;0.50;;;18.20;61.30;;;;;;4981422;28;20069;-77
2023/04/22 03:34:48;;;;;;;0.38;0.38;;;18.20;61.30;;;;;;4981915;28;20053;-83
2023/04/22 03:37:14;;;;;;;0.55;0.55;;;18.20;61.40;;;;;;4997991;28;20124;-83
2023/04/22 03:39:39;;;;;;;0.40;0.40;;;18.20;61.50;;;;;;4996835;28;20423;-83
2023/04/22 03:42:05;;;;;;;0.40;0.40;;;18.20;61.50;;;;;;4980963;28;20070;-83
2023/04/22 03:44:30;;;;;;;0.30;0.30;;;18.20;61.50;;;;;;4996458;28;20231;-83
2023/04/22 03:46:56;;;;;;;0.40;0.40;;;18.20;61.40;;;;;;4981068;28;20635;-83
2023/04/22 03:49:21;;;;;;;0.43;0.43;;;18.20;61.50;;;;;;4983311;28;20054;-84
2023/04/22 03:51:47;;;;;;;0.38;0.38;;;18.20;61.50;;;;;;4982883;28;20125;-83
2023/04/22 03:54:12;;;;;;;0.82;0.40;;;18.20;61.40;;;;;;4983457;28;20046;-84
2023/04/22 03:56:38;;;;;;;0.60;0.60;;;18.20;61.40;;;;;;4981144;28;20038;-83
2023/04/22 03:59:03;;;;;;;0.30;0.30;;;18.20;61.40;;;;;;4984014;28;20045;-83
2023/04/22 04:01:29;;;;;;;0.45;0.45;;;18.20;61.40;;;;;;4984791;28;20046;-83
2023/04/22 04:03:55;;;;;;;0.60;0.60;;;18.20;61.40;;;;;;4983191;28;20477;-84
2023/04/22 04:06:20;;;;;;;0.30;0.30;;;18.20;61.40;;;;;;4974012;28;20034;-84
2023/04/22 04:08:46;;;;;;;0.40;0.40;;;18.20;61.30;;;;;;4984873;28;20125;-84
2023/04/22 04:11:11;;;;;;;0.43;0.43;;;18.20;61.40;;;;;;4998206;28;20043;-84
2023/04/22 04:13:37;;;;;;;0.40;0.40;;;18.20;61.40;;;;;;4985393;28;20109;-83
2023/04/22 04:16:02;;;;;;;0.50;0.50;;;18.20;61.40;;;;;;4983258;28;20038;-84
2023/04/22 04:18:28;;;;;;;0.50;0.50;;;18.20;61.40;;;;;;4983093;28;20046;-84
2023/04/22 04:20:55;;;;;;;0.45;0.45;;;18.20;61.40;;;;;;4986575;28;20046;-85
2023/04/22 04:23:20;;;;;;;0.50;0.50;;;18.20;61.40;;;;;;4982038;28;20043;-84
2023/04/22 04:25:46;;;;;;;0.40;0.40;;;18.10;61.30;;;;;;4984272;28;20057;-84
2023/04/22 04:28:12;;;;;;;0.60;0.60;;;18.10;61.40;;;;;;4966825;28;20089;-84
2023/04/22 04:30:40;;;;;;;0.40;0.40;;;18.20;61.40;;;;;;4984423;28;20534;-84
2023/04/22 04:33:05;;;;;;;0.43;0.40;;;18.10;61.30;;;;;;4987281;28;20042;-84
2023/04/22 04:35:35;;;;;;;0.30;0.30;;;18.10;61.30;;;;;;4985311;28;20058;-83
2023/04/22 04:38:01;;;;;;;0.30;0.30;;;18.10;61.40;;;;;;4986339;28;20077;-84
2023/04/22 04:40:30;;;;;;;0.40;0.40;;;18.10;61.30;;;;;;4983340;28;20129;-82
2023/04/22 04:42:56;;;;;;;0.40;0.40;;;18.10;61.40;;;;;;4982157;28;20050;-84
2023/04/22 04:45:25;;;;;;;0.68;0.52;;;18.10;61.40;;;;;;4980228;28;20093;-83
2023/04/22 04:47:54;;;;;;;0.30;0.30;;;18.10;61.50;;;;;;4984473;28;20050;-84
2023/04/22 04:50:20;;;;;;;0.50;0.50;;;18.20;61.40;;;;;;4982106;28;20061;-83
2023/04/22 04:52:47;;;;;;;0.43;0.43;;;18.10;61.40;;;;;;4981296;28;20050;-84
2023/04/22 04:55:13;;;;;;;0.40;0.40;;;18.10;61.50;;;;;;4986821;28;20117;-84
2023/04/22 04:57:39;;;;;;;0.50;0.50;;;18.10;61.50;;;;;;4982864;28;20152;-83
2023/04/22 05:00:07;;;;;;;0.50;0.50;;;18.10;61.50;;;;;;4984725;28;20563;-83
2023/04/22 05:02:32;;;;;;;0.50;0.50;;;18.10;61.50;;;;;;4982730;28;20069;-83
2023/04/22 05:04:58;;;;;;;0.50;0.50;;;18.10;61.50;;;;;;4983443;28;20118;-82
2023/04/22 05:07:24;;;;;;;0.50;0.50;;;18.10;61.60;;;;;;4996502;28;20848;-81
2023/04/22 05:09:49;;;;;;;0.50;0.50;;;18.10;61.50;;;;;;4985519;28;20046;-81
2023/04/22 05:12:15;;;;;;;0.40;0.40;;;18.10;61.50;;;;;;4986801;28;20042;-82
2023/04/22 05:14:40;;;;;;;0.47;0.47;;;18.10;61.50;;;;;;4985778;28;20050;-81
2023/04/22 05:17:06;;;;;;;0.32;0.32;;;18.10;61.50;;;;;;4987845;28;20521;-82
2023/04/22 05:19:32;;;;;;;0.50;0.50;;;18.10;62.40;;;;;;4966581;28;20480;-81
2023/04/22 05:21:58;;;;;;;0.47;0.47;;;18.10;61.60;;;;;;4984955;28;20534;-82
2023/04/22 05:24:23;;;;;;;0.50;0.50;;;18.10;61.60;;;;;;5014650;28;20138;-82
2023/04/22 05:26:49;;;;;;;0.60;0.60;;;18.10;61.60;;;;;;4989065;28;20512;-82
2023/04/22 05:29:14;;;;;;;0.40;0.40;;;18.10;61.60;;;;;;4939706;28;20054;-83
2023/04/22 05:31:40;;;;;;;0.50;0.50;;;18.00;61.60;;;;;;4983420;28;20409;-82
2023/04/22 05:34:06;;;;;;;0.50;0.50;;;18.10;61.60;;;;;;4987518;28;20093;-82
2023/04/22 05:36:31;;;;;;;0.40;0.40;;;18.10;61.60;;;;;;4986746;28;20058;-81
2023/04/22 05:38:57;;;;;;;0.50;0.50;;;18.10;61.50;;;;;;4985829;28;20495;-83
2023/04/22 05:41:22;;;;;;;0.40;0.40;;;18.10;61.60;;;;;;4986631;28;20046;-82
2023/04/22 05:43:48;;;;;;;0.55;0.55;;;18.10;61.50;;;;;;4998678;28;20045;-82
2023/04/22 05:46:13;;;;;;;0.50;0.50;;;18.10;61.50;;;;;;4987648;28;20041;-82
2023/04/22 05:48:39;;;;;;;0.47;0.47;;;18.10;61.80;;;;;;4993353;28;20062;-82
2023/04/22 05:51:05;;;;;;;0.40;0.40;;;18.10;61.60;;;;;;4984577;28;20066;-82
2023/04/22 05:53:30;;;;;;;0.30;0.30;;;18.10;62.50;;;;;;4965908;28;20065;-81
2023/04/22 05:55:56;;;;;;;0.40;0.40;;;18.00;61.60;;;;;;4966310;28;20057;-81
2023/04/22 05:58:21;;;;;;;0.40;0.40;;;18.10;61.70;;;;;;5008964;28;20141;-83
2023/04/22 06:00:47;;;;;;;0.40;0.40;;;18.10;61.70;;;;;;5000310;28;20042;-82
2023/04/22 06:03:12;;;;;;;0.40;0.40;;;18.10;61.70;;;;;;5005875;28;20046;-82
2023/04/22 06:05:38;;;;;;;0.55;0.55;;;18.10;61.60;;;;;;4989168;28;20034;-82
2023/04/22 06:08:03;;;;;;;0.40;0.40;;;18.10;61.60;;;;;;4952902;28;20170;-82
2023/04/22 06:10:29;;;;;;;0.60;0.60;;;18.10;61.70;;;;;;4984829;28;20042;-82
2023/04/22 06:12:55;;;;;;;0.40;0.40;;;18.10;61.70;;;;;;5002050;28;20050;-81
2023/04/22 06:15:20;;;;;;;0.50;0.50;;;18.10;61.70;;;;;;4996139;28;20053;-82
2023/04/22 06:17:47;;;;;;;0.43;0.43;;;18.10;61.70;;;;;;4968609;28;20046;-81
2023/04/22 06:20:13;;;;;;;0.40;0.40;;;18.10;61.70;;;;;;4982312;28;20066;-84
2023/04/22 06:22:38;;;;;;;0.50;0.50;;;18.10;61.90;;;;;;4983580;28;20542;-84
2023/04/22 06:25:04;;;;;;;0.50;0.50;;;18.10;61.60;;;;;;4970150;28;20515;-84
2023/04/22 06:27:30;;;;;;;0.50;0.50;;;18.10;61.50;;;;;;4974188;28;20081;-82
2023/04/22 06:29:55;;;;;;;0.50;0.50;;;18.00;61.60;;;;;;4991322;28;20074;-83
2023/04/22 06:32:21;;;;;;;0.50;0.50;;;18.10;61.70;;;;;;5001021;28;20048;-83
2023/04/22 06:34:46;;;;;;;0.30;0.30;;;18.10;61.80;;;;;;4998063;28;20069;-83
2023/04/22 06:37:12;;;;;;;1.35;0.60;;;18.00;61.70;;;;;;4991867;28;20034;-83
2023/04/22 06:39:38;;;;;;;0.50;0.50;;;18.10;61.60;;;;;;4977104;28;20050;-83
2023/04/22 06:42:03;;;;;;;0.50;0.50;;;18.10;61.60;;;;;;4978129;28;20034;-84
2023/04/22 06:44:29;;;;;;;0.45;0.45;;;18.10;61.60;;;;;;4993880;28;20038;-84
2023/04/22 06:46:55;;;;;;;0.40;0.40;;;18.10;61.60;;;;;;4996673;28;20042;-83
2023/04/22 06:49:21;;;;;;;0.40;0.40;;;18.10;61.60;;;;;;4999738;28;20115;-83
2023/04/22 06:51:46;;;;;;;0.40;0.40;;;18.10;61.90;;;;;;4984262;28;20628;-83
2023/04/22 06:54:12;;;;;;;0.40;0.40;;;18.10;61.80;;;;;;5004763;28;20611;-84
2023/04/22 06:56:37;;;;;;;0.85;0.30;;;18.10;61.80;;;;;;4973683;28;20125;-83
2023/04/22 06:59:03;;;;;;;0.40;0.40;;;18.10;61.70;;;;;;4983554;28;20038;-83
2023/04/22 07:01:29;;;;;;;0.40;0.40;;;18.10;61.80;;;;;;5004310;28;20068;-84
2023/04/22 07:03:54;;;;;;;0.35;0.35;;;18.10;61.80;;;;;;4978057;28;20510;-84
2023/04/22 07:06:20;;;;;;;1.05;0.60;;;18.10;61.80;;;;;;4992898;28;20627;-84
2023/04/22 07:08:45;;;;;;;0.95;0.40;;;18.10;61.90;;;;;;4993369;28;20051;-84
2023/04/22 07:11:11;;;;;;;0.38;0.38;;;18.10;61.80;;;;;;4990277;28;20042;-84
2023/04/22 07:13:40;;;;;;;0.57;0.40;;;18.10;62.60;;;;;;4996564;28;20567;-84
2023/04/22 07:16:05;;;;;;;0.30;0.30;;;18.10;61.80;;;;;;4959781;28;20058;-84
2023/04/22 07:18:31;;;;;;;0.40;0.40;;;18.10;61.80;;;;;;5007569;28;20654;-85
2023/04/22 07:20:56;;;;;;;0.47;0.47;;;18.10;61.70;;;;;;4979012;28;20047;-81
2023/04/22 07:23:22;;;;;;;0.50;0.50;;;18.10;61.60;;;;;;5003216;28;20638;-82
2023/04/22 07:25:48;;;;;;;0.38;0.38;;;18.20;61.80;;;;;;4968434;28;20039;-79
2023/04/22 07:28:13;;;;;;;0.60;0.60;;;18.10;61.60;;;;;;4989731;28;20129;-81
2023/04/22 07:30:39;;;;;;;0.60;0.60;;;18.10;61.30;;;;;;4976036;28;20993;-80
2023/04/22 07:33:05;;;;;;;0.90;0.90;;;18.10;61.40;;;;;;4996744;28;20042;-83
2023/04/22 07:35:30;;;;;;;1.55;1.45;;;18.10;60.30;;;;;;4633094;28;10000309;-83
2023/04/22 07:37:56;;;;;;;4.50;1.17;;;18.20;59.80;;;;;;4944549;28;20035;-84
2023/04/22 07:40:21;;;;;;;1.30;1.30;;;18.10;59.40;;;;;;4975421;28;20141;-83
2023/04/22 07:42:47;;;;;;;1.70;1.60;;;18.10;59.20;;;;;;4625099;28;10000444;-87
2023/04/22 07:45:12;;;;;;;1.23;1.23;;;18.10;59.20;;;;;;4983356;28;20053;-91
2023/04/22 07:47:38;;;;;;;2.00;1.90;;;18.10;59.60;;;;;;4983315;28;20047;-86
2023/04/22 07:50:04;;;;;;;2.00;1.90;;;17.90;57.30;;;;;;4995403;28;20054;-89
2023/04/22 07:52:30;;;;;;;1.80;1.70;;;17.90;58.20;;;;;;4981313;28;20097;-90
2023/04/22 07:54:55;;;;;;;1.40;1.40;;;18.00;58.40;;;;;;4960957;28;20055;-85
2023/04/22 07:57:21;;;;;;;1.70;1.60;;;18.00;58.10;;;;;;4970642;28;20046;-83
2023/04/22 07:59:47;;;;;;;1.38;1.38;;;18.00;58.10;;;;;;5009478;28;20054;-83
2023/04/22 08:02:13;;;;;;;1.33;1.23;;;18.00;58.50;;;;;;4975387;28;20129;-83
2023/04/22 08:04:39;;;;;;;1.50;1.50;;;18.00;58.10;;;;;;4968993;28;20167;-82
2023/04/22 08:07:04;;;;;;;1.80;1.70;;;18.00;57.90;;;;;;4987480;28;20073;-83
2023/04/22 08:09:30;;;;;;;1.65;1.42;;;18.00;57.80;;;;;;4998345;28;20160;-83
2023/04/22 08:11:56;;;;;;;1.70;1.60;;;18.10;57.90;;;;;;4955213;28;20046;-83
2023/04/22 08:14:22;;;;;;;1.77;1.67;;;18.10;57.80;;;;;;4953933;28;20038;-83
2023/04/22 08:16:49;;;;;;;1.45;1.40;;;18.10;57.90;;;;;;4988859;28;20105;-83
2023/04/22 08:19:17;;;;;;;1.83;1.73;;;18.10;58.00;;;;;;4968514;28;20379;-82
2023/04/22 08:21:43;;;;;;;1.42;1.33;;;18.10;58.10;;;;;;4953641;28;20057;-82
2023/04/22 08:24:09;;;;;;;1.95;1.85;;;18.10;57.60;;;;;;4971191;28;20558;-82
2023/04/22 08:26:35;;;;;;;1.98;1.83;;;18.10;57.40;;;;;;4986475;28;20038;-85
2023/04/22 08:29:00;;;;;;;1.55;1.50;;;18.20;57.60;;;;;;4985678;28;20077;-85
2023/04/22 08:31:26;;;;;;;1.55;1.52;;;18.20;57.80;;;;;;4952089;28;20046;-84
2023/04/22 08:33:52;;;;;;;1.42;1.33;;;18.30;57.70;;;;;;4985936;28;20174;-83
2023/04/22 08:36:18;;;;;;;1.90;1.80;;;18.30;57.30;;;;;;4979886;28;20049;-83
2023/04/22 08:38:44;;;;;;;1.90;1.80;;;18.30;56.70;;;;;;4985589;28;20041;-79
2023/04/22 08:41:10;;;;;;;1.25;1.25;;;18.40;57.20;;;;;;4972480;28;20044;-84
2023/04/22 08:43:35;;;;;;;2.45;2.35;;;18.50;57.40;;;;;;4971888;28;20038;-84
2023/04/22 08:46:01;;;;;;;2.47;2.38;;;18.30;55.10;;;;;;4971328;28;20459;-84
2023/04/22 08:48:26;;;;;;;3.33;3.20;;;18.30;53.90;;;;;;4970428;28;20050;-85
2023/04/22 08:50:52;;;;;;;3.13;2.83;;;18.20;54.10;;;;;;4984250;28;20054;-85
2023/04/22 08:53:19;;;;;;;3.80;3.45;;;18.10;53.20;;;;;;4966736;28;20037;-84
2023/04/22 08:55:44;;;;;;;2.95;2.85;;;18.10;53.10;;;;;;4954262;28;20504;-85
2023/04/22 08:58:11;;;;;;;3.53;3.28;;;18.10;52.90;;;;;;4953926;28;20035;-86
2023/04/22 09:00:38;;;;;;;3.00;2.90;;;18.20;52.90;;;;;;4952930;28;20117;-85
2023/04/22 09:03:04;;;;;;;3.25;3.15;;;18.20;53.00;;;;;;4936899;28;20053;-84
2023/04/22 09:05:32;;;;;;;2.70;2.60;;;18.10;53.30;;;;;;4983835;28;20050;-83
2023/04/22 09:07:57;;;;;;;2.78;2.67;;;18.10;53.50;;;;;;4963472;28;20042;-86
2023/04/22 09:10:23;;;;;;;2.92;2.72;;;18.00;53.60;;;;;;4981932;28;20788;-86
2023/04/22 09:12:48;;;;;;;3.50;2.88;;;18.00;53.80;;;;;;4969308;28;20504;-83
2023/04/22 09:15:14;;;;;;;3.53;3.33;;;18.10;53.60;;;;;;4965240;28;20045;-78
2023/04/22 09:17:40;;;;;;;3.40;3.30;;;18.20;53.30;;;;;;4988786;28;20046;-78
2023/04/22 09:20:07;;;;;;;3.40;3.20;;;18.10;53.60;;;;;;4969514;28;20905;-77
2023/04/22 09:22:43;;;;;;;3.28;3.15;;;18.10;53.40;;;;;;4992640;28;20101;-79
2023/04/22 09:25:23;;;;;;;3.22;3.03;;;18.10;53.80;;;;;;5002301;28;20057;-80
2023/04/22 09:27:53;;;;;;;3.53;3.33;;;18.10;54.10;;;;;;4963252;28;20527;-87
2023/04/22 09:30:22;;;;;;;3.45;3.20;;;18.10;53.60;;;;;;5002746;28;20042;-90
2023/04/22 09:32:53;;;;;;;3.25;3.05;;;18.10;53.60;;;;;;4985696;28;20061;-85
2023/04/22 09:35:26;;;;;;;3.03;2.83;;;18.10;53.40;;;;;;4984254;28;20113;-83
2023/04/22 09:37:51;;;;;;;2.72;2.63;;;18.10;53.70;;;;;;4984643;28;20064;-87
2023/04/22 09:40:17;;;;;;;2.70;2.60;;;18.10;53.70;;;;;;4984911;28;20125;-86
2023/04/22 09:42:53;;;;;;;2.45;2.35;;;18.20;53.90;;;;;;4983914;28;20042;-89
2023/04/22 09:45:32;;;;;;;2.60;2.50;;;18.20;55.00;;;;;;4984278;28;20046;-85
2023/04/22 09:48:09;;;;;;;2.67;2.28;;;18.30;54.10;;;;;;5006771;28;20041;-84
2023/04/22 09:50:36;;;;;;;2.45;2.35;;;18.30;53.80;;;;;;5004484;28;20540;-85
2023/04/22 09:53:04;;;;;;;2.38;2.28;;;18.30;53.80;;;;;;4964887;28;20046;-86
2023/04/22 09:55:33;;;;;;;2.00;1.90;;;18.30;54.30;;;;;;4984362;28;20057;-85
2023/04/22 09:58:07;;;;;;;2.03;1.92;;;18.40;54.40;;;;;;4966495;28;20530;-84
2023/04/22 10:00:33;;;;;;;2.20;2.10;;;18.40;54.40;;;;;;4969826;28;20061;-87
2023/04/22 10:02:59;;;;;;;2.05;1.95;;;18.50;54.40;;;;;;4987616;28;20045;-83
2023/04/22 10:05:25;;;;;;;2.40;2.30;;;18.40;54.50;;;;;;4978602;28;20034;-86
2023/04/22 10:07:51;;;;;;;2.40;2.20;;;18.40;54.70;;;;;;4984162;28;20238;-84
2023/04/22 10:10:17;;;;;;;2.83;2.38;;;18.40;54.70;;;;;;4994783;28;20133;-84
2023/04/22 10:12:43;;;;;;;3.13;2.38;;;18.40;55.10;;;;;;4999783;28;20042;-85
2023/04/22 10:15:08;;;;;;;2.10;1.90;;;18.40;54.60;;;;;;4997669;28;20058;-85
2023/04/22 10:17:36;;;;;;;2.20;2.10;;;18.40;54.90;;;;;;4995741;28;20038;-87
2023/04/22 10:20:04;;;;;;;2.40;2.30;;;18.30;54.90;;;;;;4999814;28;20417;-87
2023/04/22 10:22:31;;;;;;;2.13;2.03;;;18.40;54.50;;;;;;4997374;28;21083;-85
2023/04/22 10:24:57;;;;;;;1.92;1.73;;;18.30;54.30;;;;;;4969518;28;20555;-85
2023/04/22 10:27:23;;;;;;;2.28;1.90;;;;;;;;;;4985176;28;20044;-82
2023/04/22 10:29:48;;;;;;;2.15;2.05;;;18.50;59.30;;;;;;4981541;28;20074;-82
2023/04/22 10:32:17;;;;;;;1.92;1.83;;;18.50;69.40;;;;;;4985929;28;20058;-81
2023/04/22 10:34:43;;;;;;;1.88;1.77;;;18.60;69.40;;;;;;4984734;28;20054;-82
2023/04/22 10:37:12;;;;;;;1.75;1.65;;;18.60;72.30;;;;;;4968225;28;20528;-81
2023/04/22 10:39:39;;;;;;;2.42;1.58;;;18.70;74.10;;;;;;4983638;28;20457;-78
2023/04/22 10:42:09;;;;;;;2.08;1.30;;;18.90;74.10;;;;;;5004825;28;20388;-80
2023/04/22 10:44:51;;;;;;;1.60;1.50;;;18.90;72.00;;;;;;5002169;28;20442;-82
2023/04/22 10:47:32;;;;;;;1.30;1.30;;;19.00;72.30;;;;;;4999708;28;20053;-79
2023/04/22 10:50:18;;;;;;;2.42;1.33;;;19.10;72.70;;;;;;4993500;28;20434;-83
2023/04/22 10:52:49;;;;;;;1.60;1.50;;;19.00;68.50;;;;;;4306540;28;10000786;-85
2023/04/22 10:55:15;;;;;;;1.10;1.10;;;19.00;68.80;;;;;;4949634;28;20458;-83
2023/04/22 10:57:42;;;;;;;1.63;1.52;;;18.90;68.80;;;;;;5007170;28;20149;-85
2023/04/22 11:00:28;;;;;;;1.10;1.10;;;18.90;68.60;;;;;;4999089;28;20134;-84
2023/04/22 11:03:09;;;;;;;1.92;1.20;;;18.90;67.60;;;;;;4982470;28;20058;-83
2023/04/22 11:05:35;;;;;;;2.15;1.15;;;18.80;70.20;;;;;;4963451;28;20049;-82
2023/04/22 11:08:03;;;;;;;1.65;1.50;;;18.80;69.90;;;;;;4977081;28;20050;-83
2023/04/22 11:10:33;;;;;;;1.40;1.30;;;18.90;69.90;;;;;;4950430;28;20042;-84
2023/04/22 11:13:00;;;;;;;1.70;1.25;;;18.90;70.20;;;;;;4983629;28;20045;-83
2023/04/22 11:15:27;;;;;;;1.40;1.30;;;18.90;70.80;;;;;;4991654;28;20050;-84
2023/04/22 11:17:53;;;;;;;1.10;1.00;;;18.90;70.10;;;;;;4975187;28;20078;-82
2023/04/22 11:20:19;;;;;;;1.10;1.00;;;18.90;70.20;;;;;;4976774;28;20125;-83
2023/04/22 11:22:55;;;;;;;0.80;0.80;;;18.90;70.80;;;;;;4985867;28;20038;-83
2023/04/22 11:25:21;;;;;;;1.75;0.80;;;18.90;70.00;;;;;;4995357;28;20073;-83
2023/04/22 11:27:47;;;;;;;1.25;0.90;;;18.90;70.00;;;;;;4965514;28;20042;-82
2023/04/22 11:30:14;;;;;;;1.15;0.80;;;18.90;70.50;;;;;;4979866;28;20403;-83
2023/04/22 11:32:47;;;;;;;1.27;1.02;;;18.90;69.90;;;;;;4972311;28;20065;-81
2023/04/22 11:35:23;;;;;;;0.80;0.80;;;18.90;69.40;;;;;;5010758;28;20698;-79
2023/04/22 11:37:54;;;;;;;0.77;0.63;;;18.90;70.30;;;;;;4960302;28;20051;-79
2023/04/22 11:40:28;;;;;;;0.98;0.85;;;19.00;69.90;;;;;;4966559;28;20050;-79
2023/04/22 11:42:53;;;;;;;0.98;0.77;;;19.00;70.50;;;;;;4979621;28;20116;-79
2023/04/22 11:45:19;;;;;;;4.47;0.80;;;19.00;70.70;;;;;;4635029;28;9999776;-82
2023/04/22 11:47:45;;;;;;;0.73;0.73;;;19.00;70.50;;;;;;4979331;28;20034;-83
2023/04/22 11:50:12;;;;;;;0.70;0.63;;;19.00;70.40;;;;;;4960412;28;21469;-83
2023/04/22 11:52:50;;;;;;;0.85;0.75;;;19.00;70.60;;;;;;4964391;28;20459;-84
2023/04/22 11:55:22;;;;;;;2.22;0.77;;;19.00;70.70;;;;;;4980440;28;20042;-82
2023/04/22 11:57:53;;;;;;;1.13;1.00;;;18.90;70.50;;;;;;4980762;28;20651;-83
2023/04/22 12:00:19;;;;;;;1.25;0.77;;;18.90;70.90;;;;;;4983299;28;20085;-83
2023/04/22 12:02:57;;;;;;;2.10;0.90;;;18.80;70.70;;;;;;4980011;28;20077;-83
2023/04/22 12:05:32;;;;;;;0.73;0.70;;;18.90;70.40;;;;;;4970812;28;20054;-81
2023/04/22 12:07:59;;;;;;;2.33;0.75;;;18.90;70.70;;;;;;4970633;28;20565;-81
2023/04/22 12:10:25;;;;;;;0.63;0.50;;;19.00;70.30;;;;;;4999629;28;20046;-82
2023/04/22 12:12:50;;;;;;;1.88;0.68;;;18.90;70.10;;;;;;4972602;28;20039;-81
2023/04/22 12:15:16;;;;;;;0.65;0.60;;;18.90;71.10;;;;;;4968406;28;20491;-82
2023/04/22 12:17:43;;;;;;;0.77;0.57;;;18.90;70.50;;;;;;4971587;28;20043;-82
2023/04/22 12:20:12;;;;;;;1.00;0.50;;;18.90;70.30;;;;;;4965200;28;20053;-82
2023/04/22 12:22:38;;;;;;;3.13;0.77;;;19.00;70.80;;;;;;4969452;28;20050;-81
2023/04/22 12:25:03;;;;;;;1.48;0.77;;;19.00;71.10;;;;;;4961837;28;20575;-82
2023/04/22 12:27:30;;;;;;;1.38;0.45;;;19.00;71.40;;;;;;4963016;28;20174;-81
2023/04/22 12:29:56;;;;;;;1.10;0.65;;;18.90;71.70;;;;;;4974865;28;20034;-82
2023/04/22 12:32:22;;;;;;;0.93;0.80;;;18.90;72.70;;;;;;4970810;28;20050;-82
2023/04/22 12:34:48;;;;;;;1.92;1.00;;;18.90;72.00;;;;;;4951045;28;20043;-82
2023/04/22 12:37:14;;;;;;;1.67;0.88;;;18.90;72.10;;;;;;4994064;28;20523;-82
2023/04/22 12:39:39;;;;;;;1.73;0.95;;;18.90;73.10;;;;;;5011230;28;20051;-80
2023/04/22 12:42:05;;;;;;;1.77;0.80;;;18.90;72.50;;;;;;4983334;28;20483;-81
2023/04/22 12:44:31;;;;;;;2.65;0.80;;;18.80;72.60;;;;;;4959623;28;20051;-81